createdAt,value
2022-09-16T00:00:37.906Z,97665.16
2022-09-16T00:03:04.872Z,97656.69
2022-09-16T00:05:31.762Z,97655.06
2022-09-16T00:07:58.726Z,97658.00
2022-09-16T00:10:25.627Z,97656.25
2022-09-16T00:12:52.529Z,97656.97
2022-09-16T00:15:19.614Z,97656.84
2022-09-16T00:17:46.510Z,97654.84
2022-09-16T00:20:13.644Z,97652.72
2022-09-16T00:22:40.663Z,97652.63
2022-09-16T00:25:08.229Z,97652.28
2022-09-16T00:27:35.246Z,97646.38
2022-09-16T00:30:02.367Z,97653.06
2022-09-16T00:32:29.275Z,97661.97
2022-09-16T00:34:56.378Z,97660.63
2022-09-16T00:37:23.465Z,97650.31
2022-09-16T00:39:51.233Z,97646.78
2022-09-16T00:42:19.432Z,97649.22
2022-09-16T00:44:56.110Z,97654.13
2022-09-16T00:47:38.526Z,97662.97
2022-09-16T00:50:38.139Z,97659.81
2022-09-16T00:53:07.612Z,97659.72
2022-09-16T00:55:37.713Z,97651.34
2022-09-16T00:58:19.957Z,97655.22
2022-09-16T01:00:47.628Z,97654.59
2022-09-16T01:03:14.627Z,97651.75
2022-09-16T01:05:41.833Z,97650.72
2022-09-16T01:08:08.952Z,97655.91
2022-09-16T01:10:36.106Z,97653.50
2022-09-16T01:13:06.752Z,97663.88
2022-09-16T01:16:02.709Z,97653.66
2022-09-16T01:18:50.924Z,97650.19
2022-09-16T01:21:32.692Z,97647.75
2022-09-16T01:24:33.294Z,97653.78
2022-09-16T01:27:49.800Z,97648.84
2022-09-16T01:31:09.406Z,97652.72
2022-09-16T01:33:57.840Z,97660.13
2022-09-16T01:36:41.608Z,97664.31
2022-09-16T01:39:42.234Z,97665.66
2022-09-16T01:42:51.505Z,97672.34
2022-09-16T01:45:31.046Z,97675.00
2022-09-16T01:48:14.912Z,97658.03
2022-09-16T01:50:49.333Z,97661.97
2022-09-16T01:53:34.436Z,97659.25
2022-09-16T01:56:10.974Z,97654.38
2022-09-16T01:59:03.149Z,97655.19
2022-09-16T02:01:31.366Z,97658.75
2022-09-16T02:04:07.175Z,97654.75
2022-09-16T02:06:35.091Z,97660.41
2022-09-16T02:09:13.556Z,97653.25
2022-09-16T02:11:42.546Z,97657.09
2022-09-16T02:14:20.330Z,97656.94
2022-09-16T02:16:55.843Z,97651.75
2022-09-16T02:19:31.496Z,97648.75
2022-09-16T02:22:01.294Z,97649.28
2022-09-16T02:24:30.933Z,97655.81
2022-09-16T02:27:02.937Z,97651.47
2022-09-16T02:29:41.234Z,97649.41
2022-09-16T02:32:09.328Z,97649.72
2022-09-16T02:34:42.915Z,97648.69
2022-09-16T02:37:20.517Z,97648.28
2022-09-16T02:39:51.804Z,97643.13
2022-09-16T02:42:18.861Z,97650.09
2022-09-16T02:44:47.530Z,97636.00
2022-09-16T02:47:30.231Z,97634.44
2022-09-16T02:50:20.677Z,97638.41
2022-09-16T02:53:26.205Z,97634.09
2022-09-16T02:56:23.023Z,97637.16
2022-09-16T02:58:50.105Z,97637.97
2022-09-16T03:01:19.214Z,97638.56
2022-09-16T03:03:46.412Z,97641.72
2022-09-16T03:06:21.839Z,97639.78
2022-09-16T03:08:50.498Z,97642.44
2022-09-16T03:11:45.060Z,97639.13
2022-09-16T03:14:53.989Z,97642.88
2022-09-16T03:18:03.789Z,97636.16
2022-09-16T03:20:44.224Z,97638.66
2022-09-16T03:23:56.254Z,97640.81
2022-09-16T03:26:31.878Z,97631.94
2022-09-16T03:29:25.794Z,97630.31
2022-09-16T03:32:25.805Z,97631.94
2022-09-16T03:35:16.960Z,97637.81
2022-09-16T03:37:44.948Z,97642.00
2022-09-16T03:40:16.524Z,97641.94
2022-09-16T03:42:44.746Z,97646.25
2022-09-16T03:45:17.614Z,97643.44
2022-09-16T03:47:46.378Z,97637.09
2022-09-16T03:50:14.241Z,97627.09
2022-09-16T03:52:41.294Z,97620.50
2022-09-16T03:55:10.781Z,97622.31
2022-09-16T03:57:38.467Z,97621.88
2022-09-16T04:00:07.999Z,97626.31
2022-09-16T04:02:40.609Z,97629.41
2022-09-16T04:05:08.990Z,97632.28
2022-09-16T04:07:36.231Z,97622.16
2022-09-16T04:10:04.075Z,97631.94
2022-09-16T04:12:31.065Z,97624.78
2022-09-16T04:15:00.311Z,97629.31
2022-09-16T04:17:27.706Z,97627.84
2022-09-16T04:19:54.715Z,97615.44
2022-09-16T04:22:21.599Z,97616.75
2022-09-16T04:24:48.774Z,97617.16
2022-09-16T04:27:15.728Z,97613.88
2022-09-16T04:29:42.971Z,97625.22
2022-09-16T04:32:09.851Z,97621.78
2022-09-16T04:34:36.715Z,97619.75
2022-09-16T04:37:04.222Z,97616.75
2022-09-16T04:39:31.194Z,97622.00
2022-09-16T04:41:59.566Z,97626.25
2022-09-16T04:44:27.125Z,97632.59
2022-09-16T04:46:54.041Z,97625.88
2022-09-16T04:49:20.911Z,97622.06
2022-09-16T04:51:48.555Z,97611.38
2022-09-16T04:54:15.603Z,97614.91
2022-09-16T04:56:43.131Z,97628.69
2022-09-16T04:59:10.771Z,97622.34
2022-09-16T05:01:39.505Z,97641.94
2022-09-16T05:04:07.718Z,97645.72
2022-09-16T05:06:40.984Z,97635.63
2022-09-16T05:09:10.364Z,97633.00
2022-09-16T05:11:39.486Z,97633.19
2022-09-16T05:14:12.319Z,97632.06
2022-09-16T05:16:39.842Z,97639.28
2022-09-16T05:19:06.831Z,97631.19
2022-09-16T05:21:36.475Z,97626.72
2022-09-16T05:24:08.598Z,97625.72
2022-09-16T05:26:38.841Z,97629.88
2022-09-16T05:29:12.618Z,97638.38
2022-09-16T05:31:42.342Z,97639.97
2022-09-16T05:34:19.667Z,97629.34
2022-09-16T05:36:47.819Z,97637.13
2022-09-16T05:39:25.920Z,97633.19
2022-09-16T05:41:59.256Z,97629.72
2022-09-16T05:44:28.278Z,97635.97
2022-09-16T05:46:55.904Z,97630.97
2022-09-16T05:49:23.580Z,97629.38
2022-09-16T05:51:50.835Z,97625.66
2022-09-16T05:54:18.690Z,97626.47
2022-09-16T05:56:47.296Z,97629.06
2022-09-16T05:59:15.092Z,97637.16
2022-09-16T06:01:42.525Z,97633.19
2022-09-16T06:04:13.892Z,97635.28
2022-09-16T06:06:47.366Z,97631.81
2022-09-16T06:09:21.931Z,97634.88
2022-09-16T06:11:53.790Z,97630.34
2022-09-16T06:14:23.781Z,97636.59
2022-09-16T06:16:50.755Z,97639.13
2022-09-16T06:19:19.848Z,97647.66
2022-09-16T06:21:47.385Z,97652.00
2022-09-16T06:24:16.838Z,97660.97
2022-09-16T06:26:45.216Z,97650.72
2022-09-16T06:29:15.109Z,97655.72
2022-09-16T06:31:42.434Z,97648.84
2022-09-16T06:34:18.413Z,97642.94
2022-09-16T06:36:46.278Z,97651.03
2022-09-16T06:39:15.648Z,97638.97
2022-09-16T06:41:42.621Z,97644.06
2022-09-16T06:44:10.023Z,97637.66
2022-09-16T06:46:37.572Z,97652.44
2022-09-16T06:49:06.124Z,97648.59
2022-09-16T06:51:34.741Z,97651.41
2022-09-16T06:54:05.585Z,97651.19
2022-09-16T06:56:36.013Z,97655.88
2022-09-16T06:59:03.574Z,97648.84
2022-09-16T07:01:32.223Z,97658.22
2022-09-16T07:04:05.419Z,97658.06
2022-09-16T07:09:20.273Z,97660.88
2022-09-16T07:11:47.201Z,97669.97
2022-09-16T07:14:14.152Z,97664.13
2022-09-16T07:16:41.204Z,97662.72
2022-09-16T07:19:08.131Z,97667.84
2022-09-16T07:21:35.603Z,97673.66
2022-09-16T07:24:03.627Z,97675.94
2022-09-16T07:26:33.688Z,97668.06
2022-09-16T07:29:06.726Z,97673.81
2022-09-16T07:31:37.955Z,97670.03
2022-09-16T07:34:07.864Z,97671.53
2022-09-16T07:36:42.474Z,97668.09
2022-09-16T07:39:10.584Z,97668.97
2022-09-16T07:41:40.508Z,97670.75
2022-09-16T07:44:11.365Z,97675.53
2022-09-16T07:46:38.648Z,97670.09
2022-09-16T07:49:08.348Z,97679.84
2022-09-16T07:51:35.689Z,97682.25
2022-09-16T07:54:07.107Z,97682.13
2022-09-16T07:56:36.957Z,97684.69
2022-09-16T07:59:08.752Z,97680.38
2022-09-16T08:01:38.873Z,97674.19
2022-09-16T08:04:08.461Z,97674.59
2022-09-16T08:06:39.343Z,97666.41
2022-09-16T08:09:21.105Z,97660.84
2022-09-16T08:11:53.234Z,97667.84
2022-09-16T08:14:20.535Z,97669.66
2022-09-16T08:16:51.379Z,97678.38
2022-09-16T08:19:20.556Z,97676.03
2022-09-16T08:21:47.485Z,97685.09
2022-09-16T08:24:14.486Z,97683.06
2022-09-16T08:26:41.366Z,97689.59
2022-09-16T08:29:09.815Z,97695.03
2022-09-16T08:31:38.343Z,97699.78
2022-09-16T08:34:05.723Z,97702.16
2022-09-16T08:36:35.861Z,97706.38
2022-09-16T08:39:02.863Z,97706.56
2022-09-16T08:41:55.459Z,97708.66
2022-09-16T08:45:14.228Z,97709.25
2022-09-16T08:48:27.881Z,97698.69
2022-09-16T08:50:58.938Z,97707.34
2022-09-16T08:53:41.265Z,97698.66
2022-09-16T08:56:17.333Z,97713.81
2022-09-16T08:58:48.631Z,97707.22
2022-09-16T09:01:53.083Z,97699.22
2022-09-16T09:04:20.317Z,97713.34
2022-09-16T09:07:19.688Z,97710.34
2022-09-16T09:10:13.698Z,97699.63
2022-09-16T09:12:50.850Z,97709.50
2022-09-16T09:15:45.911Z,97706.81
2022-09-16T09:18:45.440Z,97708.41
2022-09-16T09:21:43.013Z,97704.63
2022-09-16T09:24:31.022Z,97705.66
2022-09-16T09:27:08.666Z,97710.44
2022-09-16T09:29:38.948Z,97699.41
2022-09-16T09:32:49.542Z,97702.16
2022-09-16T09:36:02.766Z,97711.38
2022-09-16T09:38:56.890Z,97702.31
2022-09-16T09:41:38.282Z,97704.44
2022-09-16T09:44:39.214Z,97709.88
2022-09-16T09:47:12.363Z,97708.41
2022-09-16T09:49:53.855Z,97704.13
2022-09-16T09:53:02.989Z,97702.47
2022-09-16T09:55:34.448Z,97699.94
2022-09-16T09:58:37.181Z,97693.69
2022-09-16T10:01:04.258Z,97701.34
2022-09-16T10:03:31.617Z,97708.97
2022-09-16T10:05:58.965Z,97696.19
2022-09-16T10:08:48.577Z,97694.53
2022-09-16T10:11:23.010Z,97701.66
2022-09-16T10:13:55.985Z,97697.91
2022-09-16T10:16:29.234Z,97694.66
2022-09-16T10:19:14.696Z,97694.72
2022-09-16T10:21:47.531Z,97692.97
2022-09-16T10:24:35.541Z,97686.47
2022-09-16T10:27:20.437Z,97687.31
2022-09-16T10:29:48.618Z,97687.06
2022-09-16T10:32:19.836Z,97687.16
2022-09-16T10:34:48.070Z,97685.91
2022-09-16T10:37:20.353Z,97687.78
2022-09-16T10:39:57.258Z,97686.88
2022-09-16T10:42:28.552Z,97685.44
2022-09-16T10:45:08.645Z,97690.03
2022-09-16T10:47:36.277Z,97691.66
2022-09-16T10:50:06.591Z,97695.09
2022-09-16T10:52:46.520Z,97690.97
2022-09-16T10:55:30.066Z,97693.44
2022-09-16T10:58:18.270Z,97697.25
2022-09-16T11:01:26.398Z,97685.97
2022-09-16T11:04:30.496Z,97682.34
2022-09-16T11:07:19.111Z,97686.91
2022-09-16T11:10:16.396Z,97689.88
2022-09-16T11:13:24.644Z,97693.38
2022-09-16T11:16:22.577Z,97695.63
2022-09-16T11:19:20.944Z,97705.00
2022-09-16T11:22:00.077Z,97704.47
2022-09-16T11:25:24.683Z,97705.22
2022-09-16T11:28:33.367Z,97704.44
2022-09-16T11:31:45.989Z,97721.97
2022-09-16T11:35:03.720Z,97715.09
2022-09-16T11:38:00.715Z,97717.63
2022-09-16T11:40:59.169Z,97712.41
2022-09-16T11:43:41.151Z,97719.81
2022-09-16T11:46:39.797Z,97709.25
2022-09-16T11:49:29.934Z,97715.47
2022-09-16T11:52:53.062Z,97710.81
2022-09-16T11:56:02.532Z,97724.31
2022-09-16T11:58:55.210Z,97709.25
2022-09-16T12:02:02.208Z,97705.91
2022-09-16T12:04:42.532Z,97696.81
2022-09-16T12:07:42.296Z,97693.16
2022-09-16T12:10:14.639Z,97690.84
2022-09-16T12:13:07.552Z,97684.59
2022-09-16T12:15:42.670Z,97678.69
2022-09-16T12:18:43.835Z,97683.38
2022-09-16T12:21:22.847Z,97678.38
2022-09-16T12:24:06.340Z,97677.22
2022-09-16T12:26:52.888Z,97675.47
2022-09-16T12:29:42.695Z,97675.97
2022-09-16T12:32:18.490Z,97673.97
2022-09-16T12:34:55.564Z,97672.94
2022-09-16T12:37:48.524Z,97671.59
2022-09-16T12:40:24.408Z,97677.81
2022-09-16T12:43:27.762Z,97675.97
2022-09-16T12:46:22.914Z,97674.31
2022-09-16T12:49:17.570Z,97670.41
2022-09-16T12:52:09.579Z,97677.06
2022-09-16T12:55:08.886Z,97669.41
2022-09-16T12:58:11.424Z,97658.38
2022-09-16T13:01:24.258Z,97649.66
2022-09-16T13:04:03.150Z,97649.41
2022-09-16T13:06:39.139Z,97644.03
2022-09-16T13:09:36.354Z,97645.38
2022-09-16T13:15:08.603Z,97631.63
2022-09-16T13:17:38.506Z,97621.97
2022-09-16T13:20:32.151Z,97626.31
2022-09-16T13:23:27.422Z,97622.53
2022-09-16T13:26:08.866Z,97633.91
2022-09-16T13:28:45.480Z,97638.34
2022-09-16T13:31:12.556Z,97632.25
2022-09-16T13:34:10.843Z,97626.31
2022-09-16T13:36:37.770Z,97621.31
2022-09-16T13:39:12.308Z,97621.69
2022-09-16T13:41:45.711Z,97618.00
2022-09-16T13:44:37.307Z,97619.69
2022-09-16T13:47:10.259Z,97622.81
2022-09-16T13:49:51.768Z,97612.41
2022-09-16T13:52:34.118Z,97606.06
2022-09-16T13:55:10.645Z,97607.97
2022-09-16T13:57:50.621Z,97619.84
2022-09-16T14:00:36.192Z,97626.31
2022-09-16T14:03:31.577Z,97615.03
2022-09-16T14:06:30.832Z,97620.03
2022-09-16T14:09:25.731Z,97618.09
2022-09-16T14:12:13.996Z,97613.47
2022-09-16T14:14:49.114Z,97605.78
2022-09-16T14:17:24.448Z,97610.28
2022-09-16T14:20:00.244Z,97610.25
2022-09-16T14:22:28.651Z,97609.09
2022-09-16T14:25:06.638Z,97605.66
2022-09-16T14:27:44.001Z,97598.94
2022-09-16T14:30:20.223Z,97594.81
2022-09-16T14:32:48.915Z,97604.78
2022-09-16T14:35:26.861Z,97598.94
2022-09-16T14:38:14.149Z,97595.59
2022-09-16T14:40:50.255Z,97606.66
2022-09-16T14:43:20.621Z,97608.63
2022-09-16T14:45:53.793Z,97595.06
2022-09-16T14:48:29.277Z,97596.72
2022-09-16T14:50:56.870Z,97605.53
2022-09-16T14:53:36.492Z,97609.19
2022-09-16T14:56:05.987Z,97617.97
2022-09-16T14:58:34.112Z,97601.94
2022-09-16T15:01:15.888Z,97601.53
2022-09-16T15:03:56.234Z,97601.31
2022-09-16T15:06:33.974Z,97601.25
2022-09-16T15:09:30.679Z,97595.53
2022-09-16T15:11:59.745Z,97610.56
2022-09-16T15:14:27.674Z,97593.88
2022-09-16T15:17:03.338Z,97601.06
2022-09-16T15:19:40.168Z,97597.72
2022-09-16T15:22:13.901Z,97599.81
2022-09-16T15:24:41.885Z,97599.94
2022-09-16T15:27:09.535Z,97599.31
2022-09-16T15:29:50.452Z,97597.06
2022-09-16T15:32:23.309Z,97599.41
2022-09-16T15:35:26.579Z,97601.00
2022-09-16T15:37:54.982Z,97599.19
2022-09-16T15:40:27.939Z,97594.66
2022-09-16T15:43:20.321Z,97595.41
2022-09-16T15:46:03.025Z,97590.56
2022-09-16T15:48:34.654Z,97599.84
2022-09-16T15:51:10.239Z,97593.06
2022-09-16T15:53:45.262Z,97592.00
2022-09-16T15:56:29.082Z,97588.88
2022-09-16T15:59:19.287Z,97600.75
2022-09-16T16:01:53.650Z,97601.91
2022-09-16T16:04:31.148Z,97586.03
2022-09-16T16:07:04.255Z,97601.91
2022-09-16T16:09:41.497Z,97602.72
2022-09-16T16:12:17.040Z,97601.53
2022-09-16T16:14:44.386Z,97593.91
2022-09-16T16:17:24.458Z,97600.44
2022-09-16T16:19:51.831Z,97598.56
2022-09-16T16:22:20.550Z,97596.28
2022-09-16T16:24:50.327Z,97597.13
2022-09-16T16:27:17.291Z,97593.47
2022-09-16T16:29:44.171Z,97599.72
2022-09-16T16:32:14.148Z,97596.00
2022-09-16T16:34:44.367Z,97593.75
2022-09-16T16:37:40.282Z,97598.28
2022-09-16T16:40:06.435Z,97598.13
2022-09-16T16:42:34.783Z,97595.00
2022-09-16T16:45:01.738Z,97588.41
2022-09-16T16:47:28.991Z,97597.69
2022-09-16T16:49:55.966Z,97596.69
2022-09-16T16:52:22.848Z,97612.50
2022-09-16T16:54:49.797Z,97630.09
2022-09-16T16:57:16.875Z,97632.44
2022-09-16T16:59:43.765Z,97636.75
2022-09-16T17:02:12.144Z,97629.03
2022-09-16T17:04:39.202Z,97632.88
2022-09-16T17:07:25.053Z,97644.13
2022-09-16T17:09:53.885Z,97644.06
2022-09-16T17:12:21.093Z,97645.00
2022-09-16T17:14:48.118Z,97647.75
2022-09-16T17:17:15.031Z,97655.84
2022-09-16T17:19:42.226Z,97658.22
2022-09-16T17:22:09.561Z,97665.66
2022-09-16T17:24:36.635Z,97662.28
2022-09-16T17:27:04.307Z,97669.66
2022-09-16T17:29:31.443Z,97668.72
2022-09-16T17:32:00.678Z,97670.19
2022-09-16T17:34:27.651Z,97672.34
2022-09-16T17:36:54.719Z,97679.09
2022-09-16T17:39:22.740Z,97696.69
2022-09-16T17:41:51.021Z,97699.13
2022-09-16T17:44:19.224Z,97694.97
2022-09-16T17:46:46.944Z,97687.28
2022-09-16T17:49:18.089Z,97697.09
2022-09-16T17:51:45.583Z,97706.44
2022-09-16T17:54:12.937Z,97708.44
2022-09-16T17:56:42.396Z,97712.16
2022-09-16T17:59:11.027Z,97712.38
2022-09-16T18:01:38.078Z,97708.03
2022-09-16T18:04:05.040Z,97704.13
2022-09-16T18:06:38.114Z,97707.41
2022-09-16T18:09:07.371Z,97711.22
2022-09-16T18:11:35.715Z,97708.47
2022-09-16T18:14:05.432Z,97705.81
2022-09-16T18:16:32.726Z,97730.56
2022-09-16T18:19:01.804Z,97717.88
2022-09-16T18:21:29.984Z,97721.44
2022-09-16T18:24:00.315Z,97720.72
2022-09-16T18:26:28.039Z,97726.66
2022-09-16T18:29:12.661Z,97725.84
2022-09-16T18:31:47.020Z,97729.91
2022-09-16T18:34:15.731Z,97735.66
2022-09-16T18:36:43.327Z,97726.91
2022-09-16T18:39:16.586Z,97741.59
2022-09-16T18:41:45.527Z,97732.81
2022-09-16T18:44:25.229Z,97739.25
2022-09-16T18:46:53.245Z,97731.88
2022-09-16T18:49:26.193Z,97745.88
2022-09-16T18:51:54.221Z,97743.84
2022-09-16T18:54:30.385Z,97742.31
2022-09-16T18:56:59.790Z,97745.63
2022-09-16T18:59:30.482Z,97744.84
2022-09-16T19:02:02.497Z,97751.72
2022-09-16T19:04:32.412Z,97748.75
2022-09-16T19:07:08.229Z,97739.16
2022-09-16T19:09:38.115Z,97745.00
2022-09-16T19:12:06.776Z,97751.34
2022-09-16T19:14:33.704Z,97736.91
2022-09-16T19:17:00.727Z,97741.13
2022-09-16T19:19:27.653Z,97745.66
2022-09-16T19:21:55.315Z,97735.34
2022-09-16T19:24:26.888Z,97747.13
2022-09-16T19:26:55.373Z,97741.44
2022-09-16T19:29:23.070Z,97740.63
2022-09-16T19:31:52.908Z,97739.91
2022-09-16T19:34:22.066Z,97742.25
2022-09-16T19:36:49.589Z,97739.31
2022-09-16T19:39:16.934Z,97738.19
2022-09-16T19:41:43.827Z,97740.78
2022-09-16T19:44:17.413Z,97742.16
2022-09-16T19:46:46.826Z,97743.84
2022-09-16T19:49:18.716Z,97745.84
2022-09-16T19:51:48.453Z,97746.44
2022-09-16T19:54:16.564Z,97757.16
2022-09-16T19:56:48.215Z,97758.50
2022-09-16T19:59:16.889Z,97766.50
2022-09-16T20:01:44.032Z,97763.22
2022-09-16T20:04:11.076Z,97762.41
2022-09-16T20:06:40.960Z,97761.84
2022-09-16T20:09:11.712Z,97763.13
2022-09-16T20:11:42.373Z,97761.25
2022-09-16T20:14:19.142Z,97759.00
2022-09-16T20:16:47.286Z,97761.69
2022-09-16T20:19:16.655Z,97761.69
2022-09-16T20:21:44.044Z,97769.69
2022-09-16T20:24:18.123Z,97773.97
2022-09-16T20:26:46.643Z,97775.34
2022-09-16T20:29:13.904Z,97772.19
2022-09-16T20:31:40.855Z,97780.03
2022-09-16T20:34:07.859Z,97776.59
2022-09-16T20:36:38.017Z,97772.44
2022-09-16T20:39:07.122Z,97775.69
2022-09-16T20:41:36.232Z,97779.75
2022-09-16T20:44:04.678Z,97784.00
2022-09-16T20:46:35.028Z,97782.72
2022-09-16T20:49:06.422Z,97784.97
2022-09-16T20:51:34.716Z,97776.06
2022-09-16T20:54:07.773Z,97777.88
2022-09-16T20:56:38.467Z,97783.59
2022-09-16T20:59:11.672Z,97788.72
2022-09-16T21:01:40.551Z,97796.88
2022-09-16T21:04:17.891Z,97796.13
2022-09-16T21:06:45.534Z,97791.88
2022-09-16T21:09:15.892Z,97798.00
2022-09-16T21:11:46.054Z,97796.94
2022-09-16T21:14:16.086Z,97796.88
2022-09-16T21:19:26.534Z,97795.13
2022-09-16T21:21:53.472Z,97799.66
2022-09-16T21:24:20.421Z,97802.09
2022-09-16T21:26:47.361Z,97803.31
2022-09-16T21:29:18.741Z,97805.66
2022-09-16T21:31:45.865Z,97801.44
2022-09-16T21:34:21.343Z,97804.63
2022-09-16T21:36:49.724Z,97816.34
2022-09-16T21:39:19.930Z,97808.00
2022-09-16T21:41:48.644Z,97815.63
2022-09-16T21:44:16.129Z,97819.25
2022-09-16T21:46:46.327Z,97819.91
2022-09-16T21:49:24.043Z,97821.06
2022-09-16T21:51:53.099Z,97816.56
2022-09-16T21:54:20.814Z,97808.25
2022-09-16T21:56:48.997Z,97810.63
2022-09-16T21:59:16.446Z,97817.94
2022-09-16T22:01:43.730Z,97822.84
2022-09-16T22:04:17.730Z,97823.06
2022-09-16T22:06:45.018Z,97826.91
2022-09-16T22:09:12.417Z,97833.66
2022-09-16T22:11:41.326Z,97829.03
2022-09-16T22:14:09.077Z,97836.91
2022-09-16T22:16:37.795Z,97828.94
2022-09-16T22:19:11.417Z,97840.72
2022-09-16T22:21:42.666Z,97840.25
2022-09-16T22:24:10.688Z,97841.31
2022-09-16T22:26:38.147Z,97833.69
2022-09-16T22:29:06.427Z,97829.72
2022-09-16T22:31:36.633Z,97832.25
2022-09-16T22:34:04.470Z,97835.97
2022-09-16T22:36:34.148Z,97831.53
2022-09-16T22:39:14.895Z,97830.53
2022-09-16T22:41:42.615Z,97830.97
2022-09-16T22:44:09.579Z,97836.09
2022-09-16T22:46:47.929Z,97825.75
2022-09-16T22:49:15.616Z,97828.34
2022-09-16T22:51:42.696Z,97829.16
2022-09-16T22:54:12.346Z,97820.78
2022-09-16T22:56:39.528Z,97823.81
2022-09-16T22:59:08.216Z,97821.09
2022-09-16T23:01:39.668Z,97827.94
2022-09-16T23:04:09.359Z,97831.72
2022-09-16T23:06:38.675Z,97827.53
2022-09-16T23:09:07.672Z,97825.91
2022-09-16T23:11:36.073Z,97829.72
2022-09-16T23:14:05.187Z,97839.63
2022-09-16T23:16:38.202Z,97837.59
2022-09-16T23:19:09.542Z,97835.22
2022-09-16T23:21:37.849Z,97837.13
2022-09-16T23:24:06.933Z,97837.56
2022-09-16T23:26:36.985Z,97828.78
2022-09-16T23:29:08.410Z,97840.97
2022-09-16T23:31:42.336Z,97836.91
2022-09-16T23:34:27.548Z,97822.41
2022-09-16T23:36:54.402Z,97831.91
2022-09-16T23:39:21.328Z,97829.66
2022-09-16T23:41:49.342Z,97829.78
2022-09-16T23:44:16.612Z,97830.53
2022-09-16T23:46:44.360Z,97830.78
2022-09-16T23:49:11.873Z,97829.31
2022-09-16T23:51:38.977Z,97829.94
2022-09-16T23:54:05.910Z,97839.44
2022-09-16T23:56:33.010Z,97833.13
2022-09-16T23:59:00.774Z,97841.09
